createdAt,value
2022-12-06T00:01:15.866Z,1.80
2022-12-06T00:03:44.726Z,1.80
2022-12-06T00:06:14.654Z,1.80
2022-12-06T00:08:42.655Z,1.90
2022-12-06T00:11:14.246Z,1.90
2022-12-06T00:13:42.573Z,1.90
2022-12-06T00:16:11.990Z,1.90
2022-12-06T00:18:41.424Z,1.90
2022-12-06T00:21:21.096Z,1.90
2022-12-06T00:23:51.648Z,1.90
2022-12-06T00:26:19.586Z,1.90
2022-12-06T00:28:47.035Z,1.90
2022-12-06T00:31:18.460Z,1.90
2022-12-06T00:33:45.895Z,2.00
2022-12-06T00:36:18.424Z,2.00
2022-12-06T00:38:46.063Z,1.90
2022-12-06T00:41:21.252Z,2.00
2022-12-06T00:43:48.840Z,2.00
2022-12-06T00:46:18.181Z,2.00
2022-12-06T00:48:46.484Z,2.00
2022-12-06T00:51:14.096Z,2.00
2022-12-06T00:53:41.929Z,2.00
2022-12-06T00:56:09.044Z,2.10
2022-12-06T00:58:36.258Z,2.10
2022-12-06T01:01:08.917Z,2.10
2022-12-06T01:03:36.378Z,2.10
2022-12-06T01:06:08.306Z,2.10
2022-12-06T01:08:36.969Z,2.10
2022-12-06T01:11:04.944Z,2.10
2022-12-06T01:13:32.487Z,2.20
2022-12-06T01:16:08.168Z,2.10
2022-12-06T01:18:36.913Z,2.20
2022-12-06T01:21:12.834Z,2.10
2022-12-06T01:23:40.250Z,2.20
2022-12-06T01:26:07.902Z,2.20
2022-12-06T01:28:35.354Z,2.20
2022-12-06T01:31:06.915Z,2.30
2022-12-06T01:33:34.615Z,2.30
2022-12-06T01:36:01.411Z,2.30
2022-12-06T01:38:28.711Z,2.30
2022-12-06T01:40:55.619Z,2.30
2022-12-06T01:43:49.929Z,2.30
2022-12-06T01:46:33.374Z,2.30
2022-12-06T01:49:18.099Z,2.30
2022-12-06T01:51:59.732Z,2.30
2022-12-06T01:54:27.681Z,2.40
2022-12-06T01:56:56.086Z,2.40
2022-12-06T01:59:25.294Z,2.40
2022-12-06T02:01:52.821Z,2.40
2022-12-06T02:04:21.763Z,2.40
2022-12-06T02:06:49.764Z,2.40
2022-12-06T02:09:18.033Z,2.40
2022-12-06T02:11:45.800Z,2.40
2022-12-06T02:14:17.281Z,2.50
2022-12-06T02:17:21.589Z,2.50
2022-12-06T02:20:17.837Z,2.50
2022-12-06T02:23:14.582Z,2.50
2022-12-06T02:26:13.062Z,2.50
2022-12-06T02:29:17.359Z,2.50
2022-12-06T02:31:51.318Z,2.50
2022-12-06T02:34:46.449Z,2.60
2022-12-06T02:37:21.166Z,2.60
2022-12-06T02:40:14.270Z,2.60
2022-12-06T02:42:55.658Z,2.60
2022-12-06T02:45:32.118Z,2.60
2022-12-06T02:48:02.937Z,2.60
2022-12-06T02:50:35.388Z,2.60
2022-12-06T02:53:04.504Z,2.70
2022-12-06T02:55:33.126Z,2.60
2022-12-06T02:57:59.701Z,2.70
2022-12-06T03:00:43.010Z,2.70
2022-12-06T03:03:39.703Z,2.70
2022-12-06T03:06:15.215Z,2.70
2022-12-06T03:09:09.893Z,2.70
2022-12-06T03:12:06.601Z,2.70
2022-12-06T03:14:49.136Z,2.70
2022-12-06T03:17:24.649Z,2.80
2022-12-06T03:19:59.669Z,2.80
2022-12-06T03:22:39.631Z,2.80
2022-12-06T03:25:09.433Z,2.80
2022-12-06T03:27:36.648Z,2.90
2022-12-06T03:30:09.999Z,2.90
2022-12-06T03:32:40.942Z,2.90
2022-12-06T03:35:11.221Z,2.90
2022-12-06T03:37:40.753Z,2.90
2022-12-06T03:40:21.427Z,2.90
2022-12-06T03:42:48.955Z,3.00
2022-12-06T03:45:16.764Z,3.00
2022-12-06T03:47:47.908Z,3.00
2022-12-06T03:50:34.129Z,3.00
2022-12-06T03:53:01.431Z,3.00
2022-12-06T03:55:28.754Z,3.00
2022-12-06T03:57:55.442Z,3.10
2022-12-06T04:00:22.860Z,3.10
2022-12-06T04:02:49.500Z,3.10
2022-12-06T04:05:16.960Z,3.10
2022-12-06T04:07:43.629Z,3.10
2022-12-06T04:10:11.234Z,3.10
2022-12-06T04:12:56.614Z,3.10
2022-12-06T04:15:23.995Z,3.10
2022-12-06T04:18:09.700Z,3.10
2022-12-06T04:21:23.152Z,3.10
2022-12-06T04:23:52.184Z,3.10
2022-12-06T04:26:21.588Z,3.10
2022-12-06T04:29:08.436Z,3.20
2022-12-06T04:31:54.990Z,3.20
2022-12-06T04:34:40.881Z,3.20
2022-12-06T04:37:26.335Z,3.20
2022-12-06T04:39:53.604Z,3.20
2022-12-06T04:42:38.749Z,3.20
2022-12-06T04:45:06.951Z,3.20
2022-12-06T04:47:33.524Z,3.20
2022-12-06T04:50:01.200Z,3.20
2022-12-06T04:52:32.649Z,3.30
2022-12-06T04:55:03.085Z,3.30
2022-12-06T04:57:29.756Z,3.30
2022-12-06T04:59:57.267Z,3.30
2022-12-06T05:02:23.944Z,3.30
2022-12-06T05:04:51.321Z,3.40
2022-12-06T05:07:17.978Z,3.40
2022-12-06T05:09:45.228Z,3.40
2022-12-06T05:12:11.836Z,3.40
2022-12-06T05:14:39.129Z,3.40
2022-12-06T05:17:05.749Z,3.40
2022-12-06T05:19:32.988Z,3.50
2022-12-06T05:21:59.556Z,3.60
2022-12-06T05:24:26.903Z,3.60
2022-12-06T05:26:53.520Z,3.60
2022-12-06T05:29:20.897Z,3.60
2022-12-06T05:31:47.760Z,3.60
2022-12-06T05:34:15.237Z,3.60
2022-12-06T05:36:44.695Z,3.60
2022-12-06T05:39:12.117Z,3.60
2022-12-06T05:41:38.712Z,3.70
2022-12-06T05:44:06.048Z,3.70
2022-12-06T05:46:32.677Z,3.70
2022-12-06T05:48:59.979Z,3.70
2022-12-06T05:51:26.563Z,3.70
2022-12-06T05:53:53.564Z,3.70
2022-12-06T05:56:20.869Z,3.70
2022-12-06T05:58:47.458Z,3.70
2022-12-06T06:01:14.667Z,3.70
2022-12-06T06:03:47.207Z,3.70
2022-12-06T06:06:15.846Z,3.70
2022-12-06T06:08:42.504Z,3.70
2022-12-06T06:11:09.684Z,3.70
2022-12-06T06:13:36.342Z,3.70
2022-12-06T06:16:03.862Z,3.70
2022-12-06T06:18:30.449Z,3.70
2022-12-06T06:20:59.946Z,3.70
2022-12-06T06:23:27.649Z,3.70
2022-12-06T06:25:55.343Z,3.70
2022-12-06T06:28:22.148Z,3.70
2022-12-06T06:30:49.377Z,3.70
2022-12-06T06:33:16.625Z,3.70
2022-12-06T06:35:44.202Z,3.70
2022-12-06T06:38:10.818Z,3.70
2022-12-06T06:40:38.058Z,3.70
2022-12-06T06:43:23.428Z,3.70
2022-12-06T06:45:59.663Z,3.70
2022-12-06T06:48:28.753Z,3.70
2022-12-06T06:50:57.900Z,3.70
2022-12-06T06:53:27.312Z,3.70
2022-12-06T06:55:54.556Z,3.80
2022-12-06T06:58:21.392Z,3.80
2022-12-06T07:00:57.581Z,3.80
2022-12-06T07:03:24.981Z,3.80
2022-12-06T07:05:53.989Z,3.80
2022-12-06T07:08:20.835Z,3.80
2022-12-06T07:10:49.093Z,3.80
2022-12-06T07:13:16.675Z,3.80
2022-12-06T07:15:44.082Z,3.80
2022-12-06T07:18:10.658Z,3.80
2022-12-06T07:20:37.967Z,3.80
2022-12-06T07:23:04.983Z,3.80
2022-12-06T07:25:32.367Z,3.90
2022-12-06T07:27:59.068Z,3.90
2022-12-06T07:30:27.790Z,3.90
2022-12-06T07:32:54.815Z,3.90
2022-12-06T07:35:22.372Z,3.90
2022-12-06T07:37:49.055Z,3.90
2022-12-06T07:40:17.498Z,3.90
2022-12-06T07:43:03.495Z,3.90
2022-12-06T07:45:30.491Z,4.00
2022-12-06T07:47:57.473Z,4.00
2022-12-06T07:50:24.598Z,4.00
2022-12-06T07:52:51.936Z,4.00
2022-12-06T07:55:19.389Z,4.00
2022-12-06T07:57:46.373Z,4.00
2022-12-06T08:00:16.396Z,4.00
2022-12-06T08:02:43.229Z,4.10
2022-12-06T08:05:10.885Z,4.10
2022-12-06T08:07:38.108Z,4.10
2022-12-06T08:10:06.771Z,4.10
2022-12-06T08:12:33.522Z,4.10
2022-12-06T08:15:00.805Z,4.10
2022-12-06T08:17:29.585Z,4.20
2022-12-06T08:19:56.198Z,4.20
2022-12-06T08:22:23.458Z,4.20
2022-12-06T08:24:50.298Z,4.20
2022-12-06T08:27:17.529Z,4.20
2022-12-06T08:29:45.217Z,4.20
2022-12-06T08:32:12.618Z,4.20
2022-12-06T08:34:39.285Z,4.20
2022-12-06T08:37:06.580Z,4.30
2022-12-06T08:39:33.215Z,4.30
2022-12-06T08:42:02.508Z,4.30
2022-12-06T08:44:31.331Z,4.30
2022-12-06T08:47:00.650Z,4.30
2022-12-06T08:49:28.800Z,4.30
2022-12-06T08:51:57.867Z,4.30
2022-12-06T08:54:25.280Z,4.30
2022-12-06T08:56:53.228Z,4.30
2022-12-06T08:59:20.143Z,4.30
2022-12-06T09:01:47.931Z,4.40
2022-12-06T09:04:15.100Z,4.40
2022-12-06T09:06:44.603Z,4.40
2022-12-06T09:09:12.536Z,4.50
2022-12-06T09:11:41.267Z,4.50
2022-12-06T09:14:13.263Z,4.50
2022-12-06T09:16:44.896Z,4.60
2022-12-06T09:19:13.280Z,4.60
2022-12-06T09:21:43.249Z,4.60
2022-12-06T09:24:15.524Z,4.60
2022-12-06T09:26:42.877Z,4.70
2022-12-06T09:29:10.242Z,4.70
2022-12-06T09:31:40.439Z,4.70
2022-12-06T09:34:08.911Z,4.70
2022-12-06T09:36:42.124Z,4.70
2022-12-06T09:39:20.709Z,4.80
2022-12-06T09:42:20.623Z,4.70
2022-12-06T09:45:01.029Z,4.80
2022-12-06T09:47:54.158Z,4.80
2022-12-06T09:50:39.210Z,4.80
2022-12-06T09:53:43.282Z,4.90
2022-12-06T09:56:16.006Z,5.00
2022-12-06T09:59:01.131Z,5.00
2022-12-06T10:01:37.274Z,5.10
2022-12-06T10:04:41.310Z,5.20
2022-12-06T10:07:50.151Z,5.20
2022-12-06T10:10:26.109Z,5.20
2022-12-06T10:13:11.898Z,5.20
2022-12-06T10:15:56.409Z,5.30
2022-12-06T10:19:01.479Z,5.30
2022-12-06T10:22:14.840Z,5.30
2022-12-06T10:25:09.352Z,5.30
2022-12-06T10:27:48.348Z,5.40
2022-12-06T10:30:16.238Z,5.40
2022-12-06T10:32:51.652Z,5.40
2022-12-06T10:35:40.382Z,5.40
2022-12-06T10:38:19.341Z,5.50
2022-12-06T10:40:49.446Z,5.40
2022-12-06T10:43:25.725Z,5.50
2022-12-06T10:46:30.072Z,5.50
2022-12-06T10:49:19.038Z,5.60
2022-12-06T10:52:09.170Z,5.60
2022-12-06T10:54:46.489Z,5.70
2022-12-06T10:57:28.214Z,5.70
2022-12-06T11:00:03.925Z,5.80
2022-12-06T11:02:53.601Z,5.80
2022-12-06T11:05:36.557Z,5.90
2022-12-06T11:08:10.957Z,5.90
2022-12-06T11:10:39.082Z,5.90
2022-12-06T11:13:42.628Z,6.00
2022-12-06T11:16:33.351Z,6.00
2022-12-06T11:19:23.205Z,6.00
2022-12-06T11:22:16.381Z,6.10
2022-12-06T11:25:25.992Z,6.10
2022-12-06T11:28:05.638Z,6.10
2022-12-06T11:30:33.459Z,6.10
2022-12-06T11:33:02.392Z,6.10
2022-12-06T11:35:29.307Z,6.00
2022-12-06T11:38:01.261Z,6.00
2022-12-06T11:40:32.239Z,6.00
2022-12-06T11:43:01.631Z,6.00
2022-12-06T11:45:33.401Z,6.00
2022-12-06T11:48:11.058Z,6.10
2022-12-06T11:50:37.852Z,6.00
2022-12-06T11:53:30.468Z,6.10
2022-12-06T11:56:02.883Z,6.00
2022-12-06T11:58:44.457Z,5.80
2022-12-06T12:01:14.428Z,5.70
2022-12-06T12:03:48.475Z,5.70
2022-12-06T12:06:23.139Z,5.80
2022-12-06T12:09:06.155Z,5.90
2022-12-06T12:11:37.219Z,5.90
2022-12-06T12:14:14.464Z,5.90
2022-12-06T12:16:48.119Z,5.90
2022-12-06T12:19:40.462Z,6.00
2022-12-06T12:22:36.533Z,6.00
2022-12-06T12:25:25.765Z,6.10
2022-12-06T12:27:55.014Z,6.10
2022-12-06T12:30:35.224Z,6.20
2022-12-06T12:33:08.346Z,6.30
2022-12-06T12:35:43.883Z,6.30
2022-12-06T12:38:10.853Z,6.40
2022-12-06T12:40:44.092Z,6.40
2022-12-06T12:43:11.076Z,6.30
2022-12-06T12:46:02.542Z,6.30
2022-12-06T12:48:30.071Z,6.10
2022-12-06T12:51:00.311Z,6.10
2022-12-06T12:53:36.057Z,6.00
2022-12-06T12:56:14.437Z,5.90
2022-12-06T12:58:43.440Z,5.90
2022-12-06T13:01:25.705Z,5.80
2022-12-06T13:04:20.149Z,5.80
2022-12-06T13:06:54.198Z,5.80
2022-12-06T13:09:39.413Z,5.90
2022-12-06T13:12:13.245Z,6.00
2022-12-06T13:14:50.432Z,6.10
2022-12-06T13:17:18.606Z,6.10
2022-12-06T13:19:53.291Z,6.10
2022-12-06T13:22:26.415Z,6.10
2022-12-06T13:25:03.704Z,6.00
2022-12-06T13:27:35.619Z,5.90
2022-12-06T13:30:17.537Z,5.90
2022-12-06T13:32:59.152Z,6.00
2022-12-06T13:35:35.016Z,6.10
2022-12-06T13:38:26.143Z,6.10
2022-12-06T13:40:59.474Z,6.10
2022-12-06T13:43:26.079Z,6.10
2022-12-06T13:46:21.870Z,6.20
2022-12-06T13:48:57.400Z,6.20
2022-12-06T13:51:37.674Z,6.20
2022-12-06T13:54:05.182Z,6.20
2022-12-06T13:56:34.765Z,6.10
2022-12-06T13:59:04.991Z,6.10
2022-12-06T14:01:51.861Z,6.10
2022-12-06T14:06:56.235Z,6.10
2022-12-06T14:09:25.889Z,6.00
2022-12-06T14:11:53.358Z,6.00
2022-12-06T14:14:24.317Z,6.00
2022-12-06T14:16:52.871Z,6.00
2022-12-06T14:19:30.707Z,5.90
2022-12-06T14:22:03.275Z,5.90
2022-12-06T14:24:32.705Z,5.90
2022-12-06T14:27:11.272Z,5.80
2022-12-06T14:29:39.606Z,5.80
2022-12-06T14:32:06.862Z,5.70
2022-12-06T14:34:35.742Z,5.70
2022-12-06T14:37:21.269Z,5.70
2022-12-06T14:39:53.231Z,5.60
2022-12-06T14:42:46.145Z,5.60
2022-12-06T14:45:15.878Z,5.60
2022-12-06T14:47:44.795Z,5.50
2022-12-06T14:50:28.867Z,5.50
2022-12-06T14:53:14.405Z,5.50
2022-12-06T14:55:59.969Z,5.40
2022-12-06T14:58:33.702Z,5.40
2022-12-06T15:01:04.694Z,5.40
2022-12-06T15:03:38.784Z,5.40
2022-12-06T15:06:18.918Z,5.40
2022-12-06T15:08:55.289Z,5.30
2022-12-06T15:11:47.015Z,5.30
2022-12-06T15:14:49.090Z,5.30
2022-12-06T15:17:22.043Z,5.30
2022-12-06T15:19:50.098Z,5.20
2022-12-06T15:22:27.418Z,5.20
2022-12-06T15:24:57.618Z,5.20
2022-12-06T15:27:26.765Z,5.10
2022-12-06T15:29:53.663Z,5.10
2022-12-06T15:32:23.474Z,5.10
2022-12-06T15:34:50.822Z,5.10
2022-12-06T15:40:04.915Z,5.10
2022-12-06T15:42:31.658Z,5.10
2022-12-06T15:44:58.571Z,5.00
2022-12-06T15:47:25.263Z,5.00
2022-12-06T15:49:54.196Z,5.00
2022-12-06T15:52:24.768Z,5.00
2022-12-06T15:54:52.327Z,5.00
2022-12-06T15:57:19.010Z,5.00
2022-12-06T15:59:45.661Z,4.90
2022-12-06T16:02:15.436Z,4.90
2022-12-06T16:04:43.243Z,4.90
2022-12-06T16:07:10.565Z,4.90
2022-12-06T16:09:37.342Z,4.90
2022-12-06T16:12:04.587Z,4.90
2022-12-06T16:14:31.221Z,4.90
2022-12-06T16:16:58.162Z,4.90
2022-12-06T16:19:44.784Z,4.90
2022-12-06T16:22:11.390Z,4.90
2022-12-06T16:24:38.133Z,4.90
2022-12-06T16:27:05.107Z,4.90
2022-12-06T16:29:31.875Z,4.90
2022-12-06T16:31:58.532Z,4.80
2022-12-06T16:34:27.306Z,4.80
2022-12-06T16:37:04.081Z,4.80
2022-12-06T16:39:33.657Z,4.80
2022-12-06T16:42:01.431Z,4.80
2022-12-06T16:44:29.043Z,4.80
2022-12-06T16:46:55.826Z,4.80
2022-12-06T16:52:15.780Z,4.80
2022-12-06T16:54:43.359Z,4.70
2022-12-06T16:57:11.791Z,4.70
2022-12-06T16:59:39.175Z,4.70
2022-12-06T17:02:26.935Z,4.70
2022-12-06T17:04:54.824Z,4.70
2022-12-06T17:07:21.626Z,4.70
2022-12-06T17:09:48.932Z,4.70
2022-12-06T17:12:15.558Z,4.70
2022-12-06T17:14:42.916Z,4.70
2022-12-06T17:17:19.993Z,4.70
2022-12-06T17:19:48.021Z,4.70
2022-12-06T17:22:19.017Z,4.70
2022-12-06T17:24:46.553Z,4.70
2022-12-06T17:27:14.600Z,4.70
2022-12-06T17:29:43.876Z,4.70
2022-12-06T17:32:11.313Z,4.70
2022-12-06T17:34:38.737Z,4.70
2022-12-06T17:37:05.997Z,4.70
2022-12-06T17:39:33.489Z,4.70
2022-12-06T17:42:18.705Z,4.70
2022-12-06T17:44:46.059Z,4.60
2022-12-06T17:47:12.759Z,4.60
2022-12-06T17:49:40.151Z,4.60
2022-12-06T17:52:06.834Z,4.60
2022-12-06T17:54:34.179Z,4.60
2022-12-06T17:57:00.858Z,4.60
2022-12-06T17:59:32.039Z,4.60
2022-12-06T18:02:16.934Z,4.60
2022-12-06T18:04:45.646Z,4.60
2022-12-06T18:07:14.136Z,4.60
2022-12-06T18:09:41.495Z,4.60
2022-12-06T18:12:09.426Z,4.50
2022-12-06T18:14:36.663Z,4.60
2022-12-06T18:17:04.252Z,4.50
2022-12-06T18:19:32.136Z,4.50
2022-12-06T18:21:58.787Z,4.50
2022-12-06T18:24:30.534Z,4.60
2022-12-06T18:27:01.471Z,4.60
2022-12-06T18:29:29.089Z,4.60
2022-12-06T18:31:55.858Z,4.60
2022-12-06T18:34:23.372Z,4.60
2022-12-06T18:36:51.088Z,4.60
2022-12-06T18:39:24.648Z,4.60
2022-12-06T18:41:53.131Z,4.60
2022-12-06T18:44:20.541Z,4.60
2022-12-06T18:46:47.225Z,4.50
2022-12-06T18:49:14.829Z,4.60
2022-12-06T18:51:41.785Z,4.50
2022-12-06T18:54:10.954Z,4.60
2022-12-06T18:56:37.684Z,4.60
2022-12-06T18:59:07.427Z,4.50
2022-12-06T19:01:37.307Z,4.50
2022-12-06T19:04:06.860Z,4.50
2022-12-06T19:06:35.982Z,4.50
2022-12-06T19:09:07.961Z,4.50
2022-12-06T19:11:39.541Z,4.50
2022-12-06T19:14:08.411Z,4.50
2022-12-06T19:16:46.568Z,4.50
2022-12-06T19:19:25.678Z,4.60
2022-12-06T19:21:53.688Z,4.60
2022-12-06T19:24:23.823Z,4.60
2022-12-06T19:26:51.929Z,4.60
2022-12-06T19:29:19.492Z,4.60
2022-12-06T19:31:46.573Z,4.60
2022-12-06T19:34:25.834Z,4.60
2022-12-06T19:36:53.943Z,4.60
2022-12-06T19:39:21.937Z,4.60
2022-12-06T19:42:07.052Z,4.60
2022-12-06T19:44:34.662Z,4.60
2022-12-06T19:47:01.293Z,4.60
2022-12-06T19:49:29.167Z,4.60
2022-12-06T19:51:56.012Z,4.60
2022-12-06T19:54:26.028Z,4.60
2022-12-06T19:56:54.716Z,4.60
2022-12-06T19:59:23.601Z,4.60
2022-12-06T20:01:50.859Z,4.60
2022-12-06T20:04:20.739Z,4.60
2022-12-06T20:06:47.665Z,4.60
2022-12-06T20:09:15.510Z,4.60
2022-12-06T20:12:01.163Z,4.60
2022-12-06T20:14:46.090Z,4.50
2022-12-06T20:17:16.248Z,4.50
2022-12-06T20:19:46.288Z,4.40
2022-12-06T20:22:14.312Z,4.40
2022-12-06T20:24:41.776Z,4.40
2022-12-06T20:27:08.696Z,4.40
2022-12-06T20:29:36.141Z,4.40
2022-12-06T20:32:03.768Z,4.30
2022-12-06T20:34:34.549Z,4.30
2022-12-06T20:37:03.663Z,4.30
2022-12-06T20:39:33.148Z,4.40
2022-12-06T20:42:00.906Z,4.40
2022-12-06T20:44:28.249Z,4.30
2022-12-06T20:46:55.137Z,4.40
2022-12-06T20:49:22.394Z,4.40
2022-12-06T20:51:52.944Z,4.40
2022-12-06T20:54:21.759Z,4.40
2022-12-06T20:56:51.277Z,4.40
2022-12-06T20:59:18.333Z,4.40
2022-12-06T21:01:45.661Z,4.40
2022-12-06T21:04:13.621Z,4.40
2022-12-06T21:06:41.037Z,4.40
2022-12-06T21:09:07.784Z,4.40
2022-12-06T21:11:35.248Z,4.40
2022-12-06T21:14:03.178Z,4.50
2022-12-06T21:16:32.138Z,4.40
2022-12-06T21:19:04.548Z,4.50
2022-12-06T21:21:34.813Z,4.40
2022-12-06T21:24:03.338Z,4.50
2022-12-06T21:26:30.914Z,4.50
2022-12-06T21:28:58.430Z,4.50
2022-12-06T21:31:27.840Z,4.40
2022-12-06T21:33:55.578Z,4.40
2022-12-06T21:36:23.154Z,4.40
2022-12-06T21:38:49.787Z,4.40
2022-12-06T21:41:17.329Z,4.40
2022-12-06T21:43:44.393Z,4.40
2022-12-06T21:46:20.604Z,4.40
2022-12-06T21:48:51.224Z,4.30
2022-12-06T21:51:19.333Z,4.30
2022-12-06T21:53:46.264Z,4.30
2022-12-06T21:56:16.133Z,4.20
2022-12-06T21:58:43.497Z,4.20
2022-12-06T22:01:13.708Z,4.20
2022-12-06T22:03:40.763Z,4.10
2022-12-06T22:06:13.004Z,4.10
2022-12-06T22:08:41.101Z,4.10
2022-12-06T22:11:14.173Z,4.10
2022-12-06T22:13:41.291Z,4.10
2022-12-06T22:16:10.761Z,4.10
2022-12-06T22:18:44.377Z,4.20
2022-12-06T22:21:19.207Z,4.20
2022-12-06T22:23:47.110Z,4.20
2022-12-06T22:26:17.633Z,4.20
2022-12-06T22:28:45.001Z,4.20
2022-12-06T22:31:15.342Z,4.20
2022-12-06T22:33:42.885Z,4.20
2022-12-06T22:36:10.974Z,4.20
2022-12-06T22:38:37.587Z,4.20
2022-12-06T22:41:05.785Z,4.20
2022-12-06T22:43:33.345Z,4.20
2022-12-06T22:46:09.660Z,4.20
2022-12-06T22:48:37.201Z,4.20
2022-12-06T22:51:14.054Z,4.20
2022-12-06T22:53:42.950Z,4.20
2022-12-06T22:56:11.250Z,4.30
2022-12-06T22:58:38.326Z,4.30
2022-12-06T23:01:16.055Z,4.30
2022-12-06T23:03:45.362Z,4.30
2022-12-06T23:06:12.778Z,4.30
2022-12-06T23:08:40.457Z,4.30
2022-12-06T23:11:13.681Z,4.30
2022-12-06T23:13:40.818Z,4.30
2022-12-06T23:16:11.718Z,4.30
2022-12-06T23:18:38.839Z,4.30
2022-12-06T23:21:17.848Z,4.30
2022-12-06T23:23:48.119Z,4.30
2022-12-06T23:26:17.691Z,4.30
2022-12-06T23:28:45.208Z,4.30
2022-12-06T23:31:14.838Z,4.30
2022-12-06T23:33:43.668Z,4.30
2022-12-06T23:36:22.007Z,4.30
2022-12-06T23:38:49.800Z,4.30
2022-12-06T23:41:37.124Z,4.30
2022-12-06T23:44:06.040Z,4.30
2022-12-06T23:46:35.510Z,4.20
2022-12-06T23:49:03.660Z,4.20
2022-12-06T23:51:34.394Z,4.10
2022-12-06T23:54:04.245Z,4.10
2022-12-06T23:56:33.484Z,4.00
2022-12-06T23:59:02.182Z,4.00
